Aviation Digital Data Service (ADDS)

Output produced by METARs form (0630 UTC 05 March 2015)
found at http://aviationweather.gov/adds/metars/
 
KDAG 050550Z AUTO 00000KT 10SM CLR 07/M08 A3024 RMK AO2 SLP234 T00721078 10172 20072 51020
KDAG 050520Z 0506/0606 VRB05KT P6SM SKC 
     FM050800 27006KT P6SM SKC 
     FM051800 VRB04KT P6SM SKC
       
KEDW 050558Z 35005KT 60SM BKN300 06/M07 A3022 RMK AO2A SLP236 T00581066 10170 20057 52021
TAF KEDW 0502/0608 VRB06KT 9999 SCT300 QNH3013INS 
     BECMG 0519/0520 05012KT 9999 FEW300 QNH3024INS 
     BECMG 0601/0602 VRB06KT 9999 SKC QNH3025INS TX20/0523Z TN00/0515Z
       
KVCV 050615Z AUTO 19003KT 10SM 04/M11 A3024 RMK AO2
KONT 050553Z 00000KT 10SM FEW250 13/02 A3016 RMK AO2 SLP209 T01330022 10211 20133 51020
KONT 050523Z 0506/0612 VRB05KT P6SM SKC 
     FM051100 VRB05KT P6SM SKC WS015/06020KT 
     FM051800 05010KT P6SM SKC 
     FM060000 VRB05KT P6SM SKC 
     FM061100 VRB05KT P6SM SKC WS015/06020KT
       
KNID 050556Z 21005KT 10SM CLR 04/M02 A3024 RMK AO2 SLP245 T00441017 10161 20044 51021 $
TAF KNID 0423/0523 14005KT 9999 BKN300 QNH3010INS 
     BECMG 0501/0503 21006KT 9999 SKC QNH3015INS WND VRB05KT AFT 0512 T01/0514Z T19/0523Z LAST NO AMD AFT 0506 NEXT 0515
       
KSNA 050553Z 00000KT 10SM SCT300 16/07 A3015 RMK AO2 SLP210 T01610072 10222 20156 51017
KSNA 050523Z 0506/0606 VRB04KT P6SM SKC 
     FM052000 22008KT P6SM SKC 
     FM060100 VRB04KT P6SM SKC
       
KSAN 050551Z 00000KT 10SM FEW250 15/09 A3017 RMK AO2 SLP215 T01500089 10189 20144 51015
KSAN 050523Z 0506/0612 VRB04KT P6SM SKC 
     FM052000 30010KT P6SM SKC 
     FM060100 VRB04KT P6SM SKC
       
KNXP 050556Z AUTO 28005KT 10SM CLR 10/M08 A3030 RMK AO2 SLP241 T01001083 10167 20089 52020 $
TAF KNXP 0503/0603 VRB05KT 9999 SKC QNH3020INS AUTOMATED SENSOR METWATCH 0503 TIL 0517 T05/0512Z T19/0522Z
       
KPSP 050553Z 27004KT 10SM CLR 16/M07 A3020 RMK AO2 SLP226 T01561067 10222 20150 52023
KPSP 050523Z 0506/0606 VRB05KT P6SM SKC 
     FM050800 31008KT P6SM SKC 
     FM051300 VRB05KT P6SM SKC
       
KLAX 050553Z 05004KT 10SM FEW250 14/09 A3015 RMK AO2 SLP208 T01390094 10178 20139 53013
KLAX 050544Z 0506/0612 VRB05KT P6SM SCT250 
     FM051300 07006KT P6SM SKC 
     FM052000 27009KT P6SM SKC 
     FM060500 VRB03KT P6SM SKC
       
KCNO 050553Z AUTO 00000KT 10SM CLR 11/04 A3017 RMK AO2 SLP215 T01060044 10222 20089 51020
KSMO 050551Z AUTO 05003KT 10SM CLR 14/06 A3015 RMK AO2 SLP208 T01390056 10194 20139 53014 $
KLGB 050553Z 00000KT 10SM CLR 14/09 A3015 RMK AO2 SLP209 T01440089 10222 20133 51017
KLGB 050544Z 0506/0606 VRB05KT P6SM SCT250 
     FM051300 03006KT P6SM SKC 
     FM052200 30010KT P6SM SKC 
     FM060500 VRB03KT P6SM SKC
       
KVNY 050551Z 00000KT 10SM CLR 14/M06 A3015 RMK AO2 SLP205 T01441056 10217 20144 53016
KVNY 050544Z 0506/0606 VRB05KT P6SM SCT250 
     FM051400 36008KT P6SM SKC 
     FM051800 01012G20KT P6SM SKC 
     FM060100 36008KT P6SM SKC
       
KBUR 050553Z 35003KT 10SM CLR 13/03 A3015 RMK AO2 SLP201 T01280028 10200 20122 53016
KBUR 050544Z 0506/0606 VRB03KT P6SM SCT250 
     FM052200 18007KT P6SM SKC 
     FM060300 33004KT P6SM SKC
       
KBFL 050554Z 11005KT 10SM CLR 14/06 A3021 RMK AO2 SLP225 T01390061 10206 20111 51019
KBFL 050520Z 0506/0606 VRB04KT P6SM SKC
       
KPMD 050553Z AUTO 12006KT 10SM CLR 02/M07 A3024 RMK AO2 SLP241 T00171067 10161 20017 52019
KPMD 050544Z 0506/0606 VRB03KT P6SM SCT250 
     FM051800 07012G18KT P6SM SKC 
     FM060300 VRB03KT P6SM SKC
       
KOXR 050551Z AUTO 03004KT 10SM CLR 12/05 A3016 RMK AO2 SLP213 T01170050 10194 20117 51016
KOXR 050544Z 0506/0606 05006KT P6SM SCT250 
     FM051000 06010KT P6SM SKC 
     FM051700 07014G22KT P6SM SKC 
     FM052200 29010KT P6SM SKC 
     FM060400 VRB03KT P6SM SKC
       
KWJF 050556Z AUTO 34004KT 10SM CLR 01/M05 A3024 RMK AO2 SLP252 T00061050 10156 20006 53022
KWJF 050544Z 0506/0606 28007KT P6SM SCT250 
     FM050800 VRB05KT P6SM SKC 
     FM051800 07012G18KT P6SM SKC 
     FM060400 VRB03KT P6SM SKC
       
KCMA 050555Z 07004KT 10SM CLR 09/05 A3016 RMK AO2 SLP222 T00940050 10200 20094 51015
KFAT 050553Z 00000KT 10SM CLR 11/06 A3022 RMK AO2 SLP231 T01110056 10200 20106 51015
KFAT 050520Z 0506/0606 VRB03KT P6SM SKC
       
KEED 050520Z 0506/0606 35012KT P6SM SKC 
     FM051800 02012G20KT P6SM SKC
       
KLSV 050558Z AUTO 07008KT 10SM CLR 10/M03 A3027 RMK AO2 SLP249 T01001032 10150 20100 52019
TAF KLSV 0501/0607 03009KT 9999 SKC QNH3013INS 
     BECMG 0502/0503 VRB06KT 9999 SKC QNH3021INS 
     BECMG 0517/0518 03009KT 9999 SKC QNH3027INS 
     BECMG 0602/0603 VRB06KT 9999 SKC QNH3030INS TX17/0523Z TN03/0515Z
       
KLAS 050556Z 00000KT 10SM CLR 11/M06 A3023 RMK AO2 SLP234 T01111056 10156 20111 51017
KLAS 050520Z 0506/0606 22007KT P6SM SKC 
     FM051600 VRB04KT P6SM SKC 
     FM051900 06006KT P6SM SKC
       
KHII 050615Z AUTO 34008KT 10SM CLR 13/M03 A3019 RMK AO2
KIFP 050615Z AUTO 02016KT 10SM CLR 14/M04 A3022 RMK AO2 PWINO